Fort Simpson, Canada
Current Conditions -  °F | °C
As of 9:00 AM on Thursday 30 Oct 2014 (Local Time) from CYFS Reporting Station
Overcast Overcast  
Wind Chill: 28°   Ceiling: 900
Heat Index: 28°   Visibility: 15mi
Dew Point: 27°   Wind: 0mph
Humidity: 93%   Direction: NA
Pressure: 29.94"   Gusts: NA
Location:  61.86°N, 121.35°W
Report Text: CYFS 301500Z 00000KT 15SM OVC009 M02/M03 A2994 RMK ST8 SLP152
Loading
Personal Weather Stations






























Interactive Weather Map
Tropical Storm Tracking
New forecast layout! Learn more

10-Day Weather Forecast

Advertisements
Track Severe Weather on mobile